Time;durP1;ratioP1;P1;durP2;ratioP2;P2;SDS_P1;SDS_P2;PMS_P1;PMS_P2;Temp;Humidity;BMP_temperature;BMP_pressure;BME280_temperature;BME280_humidity;BME280_pressure;Samples;Min_cycle;Max_cycle;Signal;HPM_P1;HPM_P2
2023/06/27 00:00:26;;;;;;;9.15;3.50;;;15.50;99.90;;;;;;4976122;28;20085;-75
2023/06/27 00:03:12;;;;;;;10.68;3.60;;;15.50;99.90;;;;;;4975678;28;20515;-76
2023/06/27 00:06:00;;;;;;;9.27;3.10;;;15.50;99.90;;;;;;4976279;28;20050;-78
2023/06/27 00:08:47;;;;;;;11.30;3.00;;;15.50;99.90;;;;;;4993364;28;20062;-78
2023/06/27 00:11:34;;;;;;;8.80;2.85;;;15.50;99.90;;;;;;4976124;28;20090;-74
2023/06/27 00:14:20;;;;;;;6.72;2.78;;;15.50;99.90;;;;;;4975524;28;20062;-78
2023/06/27 00:17:12;;;;;;;8.15;3.25;;;15.50;99.90;;;;;;4993357;28;20050;-76
2023/06/27 00:19:59;;;;;;;8.43;3.72;;;15.50;99.90;;;;;;4978333;28;20042;-76
2023/06/27 00:22:48;;;;;;;7.55;2.60;;;15.40;99.90;;;;;;4992891;28;20055;-77
2023/06/27 00:25:34;;;;;;;7.43;3.75;;;15.40;99.90;;;;;;4992591;28;20081;-76
2023/06/27 00:28:20;;;;;;;4.63;2.78;;;15.40;99.90;;;;;;4992328;28;20046;-76
2023/06/27 00:31:06;;;;;;;8.85;3.38;;;15.40;99.90;;;;;;4962093;28;20137;-77
2023/06/27 00:33:52;;;;;;;7.13;3.00;;;15.40;99.90;;;;;;4991211;28;20124;-75
2023/06/27 00:36:38;;;;;;;12.25;3.10;;;15.40;99.90;;;;;;4991772;28;20047;-76
2023/06/27 00:39:25;;;;;;;8.00;3.67;;;15.40;99.90;;;;;;4975298;28;20054;-75
2023/06/27 00:42:11;;;;;;;8.38;3.03;;;15.40;99.90;;;;;;4975176;28;20047;-75
2023/06/27 00:44:57;;;;;;;9.05;2.95;;;15.40;99.90;;;;;;4978723;28;20089;-76
2023/06/27 00:47:43;;;;;;;8.88;2.75;;;15.40;99.90;;;;;;4991895;28;20141;-75
2023/06/27 00:50:30;;;;;;;8.30;2.78;;;15.40;99.90;;;;;;4992263;28;20097;-75
2023/06/27 00:53:17;;;;;;;7.82;2.70;;;15.40;99.90;;;;;;4974427;28;20196;-75
2023/06/27 00:56:04;;;;;;;13.88;3.00;;;15.40;99.90;;;;;;4974621;28;20054;-75
2023/06/27 00:58:50;;;;;;;12.32;2.58;;;15.40;99.90;;;;;;4992944;28;20499;-75
2023/06/27 01:01:37;;;;;;;8.23;2.33;;;15.40;99.90;;;;;;4975743;28;20458;-79
2023/06/27 01:04:23;;;;;;;7.50;2.20;;;15.40;99.90;;;;;;4991986;28;20144;-78
2023/06/27 01:07:22;;;;;;;5.55;2.00;;;15.40;99.90;;;;;;4991629;28;20502;-78
2023/06/27 01:10:37;;;;;;;10.43;2.40;;;15.40;99.90;;;;;;4975066;28;20601;-78
2023/06/27 01:13:29;;;;;;;8.90;2.53;;;15.40;99.90;;;;;;4976396;28;20058;-78
2023/06/27 01:16:21;;;;;;;7.03;2.05;;;15.40;99.90;;;;;;4993889;28;20049;-76
2023/06/27 01:19:08;;;;;;;4.78;2.00;;;15.40;99.90;;;;;;4977504;28;20062;-76
2023/06/27 01:22:02;;;;;;;7.03;1.73;;;15.50;99.90;;;;;;4990923;28;20053;-77
2023/06/27 01:24:49;;;;;;;4.57;1.65;;;15.50;99.90;;;;;;4991565;28;20870;-78
2023/06/27 01:27:35;;;;;;;6.50;2.05;;;15.60;99.90;;;;;;4974268;28;20141;-75
2023/06/27 01:30:21;;;;;;;10.70;2.58;;;15.60;99.90;;;;;;4992835;28;20050;-76
2023/06/27 01:33:21;;;;;;;11.23;2.22;;;15.70;99.90;;;;;;4990870;28;20185;-77
2023/06/27 01:36:24;;;;;;;7.47;2.33;;;15.70;99.90;;;;;;4990740;28;20594;-79
2023/06/27 01:39:15;;;;;;;6.82;1.85;;;15.80;99.90;;;;;;4974980;28;20058;-75
2023/06/27 01:42:08;;;;;;;6.05;1.98;;;16.00;99.90;;;;;;4972621;28;20121;-76
2023/06/27 01:44:56;;;;;;;10.60;1.80;;;16.20;99.90;;;;;;4973707;28;20383;-76
2023/06/27 01:47:43;;;;;;;7.93;2.00;;;16.30;99.90;;;;;;4974109;28;20059;-74
2023/06/27 01:50:29;;;;;;;7.90;2.00;;;16.40;99.90;;;;;;4992134;28;20406;-77
2023/06/27 01:53:15;;;;;;;6.80;2.03;;;16.50;99.90;;;;;;4974417;28;20054;-77
2023/06/27 01:56:03;;;;;;;5.93;1.55;;;16.50;99.90;;;;;;4990347;28;20042;-75
2023/06/27 01:58:49;;;;;;;10.35;2.38;;;16.60;99.90;;;;;;4974291;28;20487;-75
2023/06/27 02:01:35;;;;;;;8.02;1.83;;;16.60;99.90;;;;;;4991437;28;20054;-76
2023/06/27 02:04:21;;;;;;;7.00;1.63;;;16.70;99.90;;;;;;4973433;28;20061;-77
2023/06/27 02:07:07;;;;;;;9.98;3.03;;;16.70;99.90;;;;;;4959886;28;20062;-75
2023/06/27 02:09:53;;;;;;;6.32;1.50;;;16.70;99.90;;;;;;4990141;28;20042;-75
2023/06/27 02:12:40;;;;;;;9.65;1.83;;;16.70;99.90;;;;;;4972765;28;20509;-76
2023/06/27 02:15:26;;;;;;;5.93;1.75;;;16.70;99.90;;;;;;4992482;28;20058;-79
2023/06/27 02:18:12;;;;;;;7.10;1.60;;;16.80;99.90;;;;;;4974084;28;20058;-79
2023/06/27 02:20:58;;;;;;;5.45;1.60;;;16.70;99.90;;;;;;4991545;28;20055;-77
2023/06/27 02:23:44;;;;;;;7.15;1.73;;;16.80;99.90;;;;;;4972786;28;20144;-76
2023/06/27 02:26:30;;;;;;;5.38;1.30;;;16.80;99.90;;;;;;4990068;28;20046;-76
2023/06/27 02:29:16;;;;;;;6.13;1.50;;;16.80;99.90;;;;;;4975893;28;20073;-77
2023/06/27 02:32:02;;;;;;;7.20;1.73;;;16.80;99.90;;;;;;4989591;28;20051;-76
2023/06/27 02:34:48;;;;;;;8.88;1.90;;;16.80;99.90;;;;;;4990703;28;20058;-79
2023/06/27 02:37:34;;;;;;;12.25;1.80;;;16.70;99.90;;;;;;4972734;28;20051;-78
2023/06/27 02:40:21;;;;;;;10.18;1.95;;;16.80;99.90;;;;;;4989204;28;20051;-76
2023/06/27 02:43:07;;;;;;;6.28;1.67;;;16.70;99.90;;;;;;4989346;28;20054;-77
2023/06/27 02:45:54;;;;;;;7.28;1.58;;;16.80;99.90;;;;;;4990365;28;20141;-75
2023/06/27 02:48:40;;;;;;;9.82;1.88;;;16.80;99.90;;;;;;4991433;28;20569;-77
2023/06/27 02:51:26;;;;;;;8.15;1.60;;;16.80;99.90;;;;;;4972779;28;20058;-76
2023/06/27 02:54:12;;;;;;;6.55;1.48;;;16.80;99.90;;;;;;4972773;28;20085;-79
2023/06/27 02:56:58;;;;;;;7.50;1.70;;;16.80;99.90;;;;;;4959207;28;20058;-76
2023/06/27 02:59:44;;;;;;;6.10;1.55;;;16.80;99.90;;;;;;4991298;28;20047;-77
2023/06/27 03:02:31;;;;;;;8.90;2.38;;;16.80;99.90;;;;;;4991005;28;20053;-76
2023/06/27 03:05:17;;;;;;;8.07;1.60;;;16.70;99.90;;;;;;4990498;28;20051;-77
2023/06/27 03:08:03;;;;;;;8.65;2.08;;;16.70;99.90;;;;;;4990400;28;20062;-76
2023/06/27 03:10:49;;;;;;;7.18;1.98;;;16.60;99.90;;;;;;4989623;28;20101;-76
2023/06/27 03:13:35;;;;;;;7.55;1.70;;;16.70;99.90;;;;;;4988766;28;20046;-77
2023/06/27 03:16:21;;;;;;;7.93;1.75;;;16.70;99.90;;;;;;4971678;28;20403;-77
2023/06/27 03:19:07;;;;;;;9.60;1.90;;;16.60;99.90;;;;;;4963075;28;20081;-77
2023/06/27 03:21:54;;;;;;;7.60;1.63;;;16.60;99.90;;;;;;4989482;28;20054;-77
2023/06/27 03:24:40;;;;;;;9.75;2.08;;;16.60;99.90;;;;;;4971383;28;20058;-76
2023/06/27 03:27:26;;;;;;;7.70;1.95;;;16.60;99.90;;;;;;4973359;28;20085;-78
2023/06/27 03:30:13;;;;;;;8.13;1.92;;;16.60;99.90;;;;;;4990277;28;20054;-76
2023/06/27 03:32:59;;;;;;;10.75;1.80;;;16.60;99.90;;;;;;4976131;28;20050;-76
2023/06/27 03:35:45;;;;;;;10.77;1.90;;;16.60;99.90;;;;;;4988950;28;20062;-76
2023/06/27 03:38:31;;;;;;;7.15;1.60;;;16.60;99.90;;;;;;4989309;28;20047;-79
2023/06/27 03:41:18;;;;;;;7.57;1.80;;;16.60;99.90;;;;;;4988366;28;20046;-77
2023/06/27 03:44:05;;;;;;;8.65;1.90;;;16.60;99.90;;;;;;4971903;28;20485;-78
2023/06/27 03:46:51;;;;;;;7.50;2.03;;;16.60;99.90;;;;;;4972563;28;20141;-77
2023/06/27 03:49:37;;;;;;;9.50;2.10;;;16.60;99.90;;;;;;4990028;28;20100;-75
2023/06/27 03:52:23;;;;;;;6.85;1.75;;;16.60;99.90;;;;;;4971932;28;20402;-79
2023/06/27 03:55:09;;;;;;;14.50;2.88;;;16.60;99.90;;;;;;4989780;28;20050;-77
2023/06/27 03:57:56;;;;;;;9.32;1.95;;;16.60;99.90;;;;;;4990071;28;20066;-77
2023/06/27 04:00:42;;;;;;;4.80;1.35;;;16.60;99.90;;;;;;4971672;28;20049;-79
2023/06/27 04:03:29;;;;;;;10.07;2.13;;;16.60;99.90;;;;;;4972417;28;20058;-75
2023/06/27 04:06:15;;;;;;;6.93;2.42;;;16.70;99.90;;;;;;4972001;28;20062;-79
2023/06/27 04:09:04;;;;;;;6.57;1.85;;;16.70;99.90;;;;;;4992944;28;20457;-79
2023/06/27 04:11:50;;;;;;;11.40;2.13;;;16.70;99.90;;;;;;4992614;28;20053;-80
2023/06/27 04:14:36;;;;;;;12.73;3.60;;;16.70;99.90;;;;;;4994534;28;20393;-79
2023/06/27 04:17:23;;;;;;;10.23;1.88;;;16.80;99.90;;;;;;4992131;28;20414;-77
2023/06/27 04:20:09;;;;;;;7.90;1.98;;;16.80;99.90;;;;;;4992593;28;20510;-76
2023/06/27 04:22:55;;;;;;;10.60;3.03;;;16.80;99.90;;;;;;4993450;28;20050;-77
2023/06/27 04:25:44;;;;;;;7.57;2.20;;;16.80;99.90;;;;;;4975166;28;20050;-76
2023/06/27 04:28:31;;;;;;;10.20;1.70;;;16.80;99.90;;;;;;4976231;28;20050;-79
2023/06/27 04:31:17;;;;;;;11.35;3.35;;;16.80;99.90;;;;;;4992433;28;20365;-76
2023/06/27 04:34:03;;;;;;;11.00;1.83;;;16.90;99.90;;;;;;4974996;28;20112;-76
2023/06/27 04:36:51;;;;;;;11.60;2.13;;;16.90;99.90;;;;;;4974860;28;20054;-77
2023/06/27 04:39:37;;;;;;;11.73;2.50;;;17.00;99.90;;;;;;4992122;28;20133;-77
2023/06/27 04:42:23;;;;;;;7.45;2.25;;;17.00;99.90;;;;;;4992936;28;20061;-77
2023/06/27 04:45:10;;;;;;;16.08;1.85;;;17.10;99.90;;;;;;4991530;28;20050;-78
2023/06/27 04:47:56;;;;;;;8.30;1.83;;;17.10;99.90;;;;;;4991887;28;20422;-78
2023/06/27 04:50:42;;;;;;;9.85;1.65;;;17.20;99.90;;;;;;4992326;28;20054;-78
2023/06/27 04:53:28;;;;;;;7.35;2.00;;;17.20;99.90;;;;;;4991680;28;20050;-77
2023/06/27 04:56:14;;;;;;;8.93;2.08;;;17.30;99.90;;;;;;4960882;28;20050;-77
2023/06/27 04:59:01;;;;;;;8.88;1.90;;;17.30;99.90;;;;;;4961663;28;20066;-79
2023/06/27 05:01:47;;;;;;;11.20;2.08;;;17.40;99.90;;;;;;4992241;28;20059;-80
2023/06/27 05:04:33;;;;;;;9.40;1.77;;;17.40;99.90;;;;;;4992032;28;20060;-76
2023/06/27 05:07:20;;;;;;;8.90;1.65;;;17.50;99.90;;;;;;4993203;28;20050;-76
2023/06/27 05:10:06;;;;;;;11.20;2.25;;;17.60;99.90;;;;;;4992532;28;20052;-76
2023/06/27 05:12:53;;;;;;;10.32;1.80;;;17.70;99.90;;;;;;4977513;28;20522;-76
2023/06/27 05:15:39;;;;;;;6.15;1.63;;;17.70;99.90;;;;;;4973944;28;20166;-78
2023/06/27 05:18:26;;;;;;;13.65;2.35;;;17.70;99.90;;;;;;4992132;28;20054;-76
2023/06/27 05:21:12;;;;;;;9.65;1.95;;;17.80;99.90;;;;;;4991932;28;20050;-78
2023/06/27 05:23:58;;;;;;;11.70;1.88;;;17.90;99.90;;;;;;4974070;28;20054;-77
2023/06/27 05:26:44;;;;;;;13.43;2.50;;;18.00;99.90;;;;;;4990746;28;20073;-76
2023/06/27 05:29:30;;;;;;;5.90;1.40;;;18.00;99.90;;;;;;4972929;28;20058;-78
2023/06/27 05:32:16;;;;;;;7.95;1.48;;;18.10;99.90;;;;;;4991176;28;20109;-77
2023/06/27 05:35:03;;;;;;;9.90;2.05;;;18.10;99.90;;;;;;4992334;28;20412;-76
2023/06/27 05:37:49;;;;;;;9.13;1.75;;;18.20;99.90;;;;;;4964358;28;20456;-77
2023/06/27 05:40:35;;;;;;;7.43;1.90;;;18.30;99.90;;;;;;4961387;28;20120;-78
2023/06/27 05:43:22;;;;;;;7.90;2.00;;;18.50;99.90;;;;;;4990826;28;20057;-76
2023/06/27 05:46:08;;;;;;;5.93;1.23;;;18.50;99.90;;;;;;4975956;28;20427;-78
2023/06/27 05:48:54;;;;;;;8.10;1.58;;;18.60;99.90;;;;;;4973583;28;20058;-78
2023/06/27 05:51:40;;;;;;;9.93;1.38;;;18.70;99.90;;;;;;4977587;28;20057;-79
2023/06/27 05:54:26;;;;;;;7.38;1.50;;;18.80;99.90;;;;;;4973852;28;20057;-78
2023/06/27 05:57:12;;;;;;;10.65;1.70;;;18.80;99.90;;;;;;4991214;28;20485;-77
2023/06/27 05:59:58;;;;;;;13.63;1.52;;;18.90;99.90;;;;;;4990713;28;20061;-77
2023/06/27 06:02:44;;;;;;;10.10;1.30;;;19.00;99.90;;;;;;4990650;28;20498;-79
2023/06/27 06:05:31;;;;;;;13.70;1.73;;;19.10;99.90;;;;;;4990452;28;20050;-77
2023/06/27 06:08:17;;;;;;;7.47;1.67;;;19.20;99.90;;;;;;4973205;28;20079;-77
2023/06/27 06:11:03;;;;;;;5.05;1.50;;;19.30;99.90;;;;;;4975525;28;20058;-76
2023/06/27 06:13:49;;;;;;;10.80;1.92;;;19.30;99.90;;;;;;4991413;28;20335;-77
2023/06/27 06:16:35;;;;;;;11.60;1.65;;;19.40;99.90;;;;;;4976455;28;20439;-77
2023/06/27 06:19:21;;;;;;;9.27;1.67;;;19.50;99.90;;;;;;4991632;28;20054;-78
2023/06/27 06:22:07;;;;;;;7.25;2.22;;;19.60;99.90;;;;;;4990500;28;20850;-78
2023/06/27 06:24:53;;;;;;;9.57;2.05;;;19.70;99.90;;;;;;4972991;28;20104;-76
2023/06/27 06:27:40;;;;;;;6.30;1.40;;;19.90;99.90;;;;;;4974803;28;20054;-77
2023/06/27 06:30:26;;;;;;;5.57;1.40;;;19.90;99.90;;;;;;4973661;28;20073;-78
2023/06/27 06:33:12;;;;;;;9.80;1.75;;;20.10;99.90;;;;;;4972565;28;20132;-77
2023/06/27 06:35:58;;;;;;;6.07;1.98;;;20.20;99.90;;;;;;4961581;28;20161;-77
2023/06/27 06:38:44;;;;;;;11.60;1.95;;;20.30;99.90;;;;;;4975613;28;20499;-76
2023/06/27 06:41:30;;;;;;;10.93;2.42;;;20.40;99.90;;;;;;4989949;28;20057;-76
2023/06/27 06:44:16;;;;;;;12.50;3.17;;;20.50;99.90;;;;;;4991179;28;20093;-76
2023/06/27 06:47:03;;;;;;;9.48;2.10;;;20.70;99.90;;;;;;4973232;28;20541;-76
2023/06/27 06:49:49;;;;;;;8.27;1.75;;;20.70;99.90;;;;;;4990912;28;20507;-76
2023/06/27 06:52:35;;;;;;;9.43;1.67;;;20.80;99.90;;;;;;4990078;28;20117;-77
2023/06/27 06:55:23;;;;;;;10.18;1.75;;;20.90;99.90;;;;;;4990278;28;20403;-77
2023/06/27 06:58:09;;;;;;;6.97;1.30;;;21.10;99.90;;;;;;4990029;28;20054;-76
2023/06/27 07:00:55;;;;;;;6.05;1.27;;;21.20;99.90;;;;;;4971770;28;20517;-77
2023/06/27 07:03:41;;;;;;;7.20;1.58;;;21.20;99.90;;;;;;4990678;28;20152;-77
2023/06/27 07:06:28;;;;;;;7.88;1.70;;;21.30;99.90;;;;;;4975363;28;20058;-76
2023/06/27 07:09:15;;;;;;;7.10;1.35;;;21.40;99.90;;;;;;4989377;28;20138;-77
2023/06/27 07:12:01;;;;;;;10.68;1.75;;;21.40;99.90;;;;;;4991118;28;20450;-78
2023/06/27 07:14:47;;;;;;;5.53;1.35;;;21.20;99.90;;;;;;4990671;28;20126;-78
2023/06/27 07:17:33;;;;;;;8.07;1.58;;;21.20;99.90;;;;;;4991108;28;20069;-77
2023/06/27 07:20:20;;;;;;;6.45;1.00;;;21.20;99.90;;;;;;4973144;28;20414;-76
2023/06/27 07:23:06;;;;;;;7.63;1.58;;;21.10;99.90;;;;;;4975983;28;20082;-76
2023/06/27 07:25:52;;;;;;;8.45;1.83;;;21.00;99.90;;;;;;4990211;28;20046;-78
2023/06/27 07:28:38;;;;;;;7.78;1.65;;;20.90;99.90;;;;;;4989601;28;20100;-78
2023/06/27 07:31:24;;;;;;;6.75;1.20;;;20.90;99.90;;;;;;4989645;28;20085;-79
2023/06/27 07:34:10;;;;;;;4.25;1.05;;;20.90;99.90;;;;;;4972404;28;20046;-79
2023/06/27 07:36:57;;;;;;;8.02;1.17;;;21.00;99.90;;;;;;4989000;28;20054;-78
2023/06/27 07:39:43;;;;;;;13.75;2.70;;;21.20;99.90;;;;;;4972174;28;20093;-79
2023/06/27 07:42:29;;;;;;;6.63;1.80;;;21.30;99.90;;;;;;4961451;28;20132;-76
2023/06/27 07:45:15;;;;;;;5.13;1.10;;;21.60;99.90;;;;;;4979065;28;20054;-79
2023/06/27 07:48:01;;;;;;;8.63;1.42;;;21.90;99.90;;;;;;4962312;28;20142;-77
2023/06/27 07:50:47;;;;;;;7.25;1.08;;;22.10;99.40;;;;;;4994630;28;20496;-78
2023/06/27 07:53:33;;;;;;;6.75;1.00;;;22.30;98.80;;;;;;4975998;28;20097;-78
2023/06/27 07:56:19;;;;;;;8.73;1.67;;;22.30;98.30;;;;;;4994100;28;20050;-76
2023/06/27 07:59:05;;;;;;;20.55;1.55;;;22.60;97.70;;;;;;4994130;28;20523;-76
2023/06/27 08:01:52;;;;;;;8.27;1.35;;;22.70;97.30;;;;;;4979099;28;20129;-77
2023/06/27 08:04:38;;;;;;;6.35;1.00;;;22.80;97.30;;;;;;4994213;28;20050;-78
2023/06/27 08:07:24;;;;;;;7.80;1.45;;;22.90;97.50;;;;;;4976070;28;20060;-78
2023/06/27 08:10:11;;;;;;;9.35;1.42;;;22.90;96.90;;;;;;4977654;28;20061;-79
2023/06/27 08:12:57;;;;;;;8.18;2.42;;;22.90;96.10;;;;;;4993193;28;20104;-78
2023/06/27 08:15:44;;;;;;;6.72;1.35;;;22.80;96.10;;;;;;4993527;28;20081;-77
2023/06/27 08:18:30;;;;;;;9.88;1.75;;;23.00;96.20;;;;;;4992749;28;20133;-76
2023/06/27 08:21:16;;;;;;;6.50;1.02;;;23.20;96.10;;;;;;4992564;28;20561;-77
2023/06/27 08:24:03;;;;;;;7.53;1.52;;;23.20;96.20;;;;;;4979169;28;20398;-78
2023/06/27 08:26:49;;;;;;;6.97;1.10;;;23.30;96.00;;;;;;4993492;28;20058;-77
2023/06/27 08:29:35;;;;;;;6.60;1.30;;;23.40;96.00;;;;;;4992510;28;20132;-76
2023/06/27 08:32:21;;;;;;;7.00;0.90;;;23.50;95.50;;;;;;4976606;28;20137;-78
2023/06/27 08:35:08;;;;;;;6.78;1.35;;;23.60;95.50;;;;;;4993357;28;20050;-77
2023/06/27 08:37:54;;;;;;;9.73;1.10;;;23.60;95.50;;;;;;4992537;28;20057;-77
2023/06/27 08:40:42;;;;;;;8.23;1.17;;;23.60;95.40;;;;;;4993103;28;20057;-75
2023/06/27 08:43:28;;;;;;;6.10;1.20;;;23.60;95.30;;;;;;4978163;28;20557;-75
2023/06/27 08:46:17;;;;;;;6.15;1.20;;;23.70;95.30;;;;;;4992459;28;20050;-78
2023/06/27 08:49:03;;;;;;;4.38;1.35;;;23.90;95.00;;;;;;4992825;28;20449;-78
2023/06/27 08:51:53;;;;;;;4.78;1.20;;;23.70;94.80;;;;;;4993921;28;20054;-75
2023/06/27 08:54:44;;;;;;;4.63;0.85;;;23.80;94.50;;;;;;4973759;28;20062;-75
2023/06/27 08:57:34;;;;;;;6.20;1.58;;;23.80;94.20;;;;;;4991965;28;20058;-76
2023/06/27 09:00:24;;;;;;;5.07;0.95;;;24.00;94.20;;;;;;4992609;28;20146;-77
2023/06/27 09:03:11;;;;;;;5.68;1.15;;;24.10;94.10;;;;;;4960638;28;20054;-76
2023/06/27 09:05:57;;;;;;;4.45;1.00;;;24.10;93.80;;;;;;4992242;28;20092;-77
2023/06/27 09:08:43;;;;;;;6.38;1.25;;;23.90;93.40;;;;;;4974239;28;20054;-77
2023/06/27 09:11:31;;;;;;;4.90;1.15;;;23.50;93.50;;;;;;4991526;28;20097;-75
2023/06/27 09:14:17;;;;;;;5.28;1.23;;;23.40;93.80;;;;;;4979586;28;20519;-77
2023/06/27 09:17:05;;;;;;;6.28;1.00;;;23.30;94.30;;;;;;4992875;28;20051;-76
2023/06/27 09:19:51;;;;;;;8.23;1.77;;;23.30;94.40;;;;;;4974588;28;20054;-76
2023/06/27 09:22:38;;;;;;;9.27;1.25;;;23.40;94.10;;;;;;4991947;28;20046;-76
2023/06/27 09:25:25;;;;;;;4.03;0.73;;;23.60;93.30;;;;;;4991894;28;20049;-77
2023/06/27 09:28:17;;;;;;;8.50;1.30;;;23.80;93.40;;;;;;4990768;28;20092;-79
2023/06/27 09:31:04;;;;;;;9.45;1.35;;;24.00;92.70;;;;;;4972916;28;20082;-76
2023/06/27 09:33:50;;;;;;;11.10;1.38;;;23.90;92.80;;;;;;4990844;28;20100;-76
2023/06/27 09:36:37;;;;;;;8.02;1.30;;;23.60;93.20;;;;;;4990330;28;20051;-77
2023/06/27 09:39:26;;;;;;;7.70;1.40;;;23.50;93.90;;;;;;4993536;28;20136;-76
2023/06/27 09:42:12;;;;;;;7.28;1.85;;;23.40;93.40;;;;;;4992205;28;20156;-76
2023/06/27 09:45:16;;;;;;;8.90;1.40;;;23.40;93.40;;;;;;4990699;28;20129;-76
2023/06/27 09:48:02;;;;;;;7.00;1.30;;;23.60;93.90;;;;;;4973000;28;20109;-76
2023/06/27 09:50:49;;;;;;;9.63;1.52;;;23.80;93.80;;;;;;4992126;28;20054;-74
2023/06/27 09:53:35;;;;;;;8.40;2.35;;;23.60;93.90;;;;;;4976494;28;20050;-76
2023/06/27 09:56:29;;;;;;;8.27;1.15;;;23.60;94.00;;;;;;4974124;28;20113;-76
2023/06/27 09:59:17;;;;;;;6.65;1.27;;;23.60;93.70;;;;;;4991517;28;20412;-78
2023/06/27 10:02:03;;;;;;;4.15;1.08;;;23.20;93.90;;;;;;4991791;28;20062;-76
2023/06/27 10:04:49;;;;;;;9.80;1.35;;;23.20;94.30;;;;;;4974407;28;20050;-75
2023/06/27 10:07:38;;;;;;;6.25;1.30;;;23.10;94.40;;;;;;4974366;28;20495;-76
2023/06/27 10:10:29;;;;;;;8.85;1.35;;;23.00;94.60;;;;;;4992376;28;20089;-76
2023/06/27 10:13:16;;;;;;;10.02;1.90;;;23.10;94.60;;;;;;4991145;28;20510;-76
2023/06/27 10:16:02;;;;;;;5.80;1.40;;;23.10;94.60;;;;;;4990990;28;20062;-76
2023/06/27 10:18:48;;;;;;;9.10;1.23;;;23.10;94.20;;;;;;4990360;28;20507;-76
2023/06/27 10:21:35;;;;;;;4.70;1.17;;;23.20;94.50;;;;;;4991121;28;20042;-75
2023/06/27 10:24:23;;;;;;;5.00;1.08;;;23.20;94.60;;;;;;4991481;28;20051;-77
2023/06/27 10:27:12;;;;;;;6.53;1.10;;;23.40;94.10;;;;;;4991611;28;20054;-75
2023/06/27 10:30:04;;;;;;;11.70;1.80;;;23.60;93.80;;;;;;4990338;28;20116;-76
2023/06/27 10:32:50;;;;;;;7.63;1.83;;;23.70;93.40;;;;;;4990419;28;20051;-76
2023/06/27 10:35:49;;;;;;;6.93;1.10;;;23.80;93.50;;;;;;4989038;28;20053;-78
2023/06/27 10:38:39;;;;;;;4.15;1.17;;;23.80;93.10;;;;;;4976681;28;20133;-77
2023/06/27 10:41:33;;;;;;;5.20;1.10;;;23.60;92.90;;;;;;4974041;28;20537;-77
2023/06/27 10:44:19;;;;;;;5.80;1.20;;;23.60;92.70;;;;;;4972441;28;20058;-76
2023/06/27 10:47:26;;;;;;;3.35;0.98;;;23.60;92.50;;;;;;4990131;28;20050;-76
2023/06/27 10:50:14;;;;;;;6.55;1.10;;;23.80;92.30;;;;;;4988680;28;20050;-77
2023/06/27 10:53:06;;;;;;;5.57;1.55;;;24.00;92.70;;;;;;4972406;28;20054;-77
2023/06/27 10:55:55;;;;;;;7.82;1.35;;;24.20;91.80;;;;;;4991026;28;20058;-76
2023/06/27 10:58:44;;;;;;;5.47;1.10;;;24.30;92.10;;;;;;4989781;28;20050;-76
2023/06/27 11:01:31;;;;;;;6.45;1.50;;;24.60;91.80;;;;;;4989675;28;20054;-77
2023/06/27 11:04:25;;;;;;;6.85;1.48;;;24.60;91.70;;;;;;4972684;28;20050;-79
2023/06/27 11:07:17;;;;;;;7.55;1.25;;;24.60;91.90;;;;;;4975692;28;20166;-77
2023/06/27 11:10:22;;;;;;;7.80;1.30;;;24.60;91.60;;;;;;4990494;28;20050;-78
2023/06/27 11:13:26;;;;;;;6.82;1.70;;;24.50;91.60;;;;;;4990615;28;20042;-77
2023/06/27 11:16:12;;;;;;;6.18;1.00;;;24.60;91.60;;;;;;4990421;28;20053;-78
2023/06/27 11:19:00;;;;;;;9.90;2.30;;;24.50;91.60;;;;;;4990055;28;20098;-77
2023/06/27 11:21:46;;;;;;;7.47;1.10;;;24.50;91.70;;;;;;4971828;28;20054;-78
2023/06/27 11:24:32;;;;;;;5.68;1.23;;;24.50;91.80;;;;;;4958763;28;20553;-75
2023/06/27 11:27:19;;;;;;;7.20;1.40;;;24.40;91.70;;;;;;4990894;28;20051;-75
2023/06/27 11:30:05;;;;;;;9.45;1.35;;;24.40;92.00;;;;;;4973265;28;20097;-75
2023/06/27 11:32:55;;;;;;;9.35;1.60;;;24.50;92.20;;;;;;4990170;28;20046;-76
2023/06/27 11:35:41;;;;;;;6.13;1.30;;;24.40;91.90;;;;;;4959419;28;20485;-76
2023/06/27 11:38:28;;;;;;;9.07;1.13;;;24.60;91.70;;;;;;4989990;28;20058;-76
2023/06/27 11:41:19;;;;;;;8.95;1.33;;;24.70;91.70;;;;;;4990577;28;20137;-76
2023/06/27 11:44:13;;;;;;;7.20;1.75;;;24.80;91.50;;;;;;4972236;28;20580;-77
2023/06/27 11:47:00;;;;;;;4.32;1.27;;;24.90;91.60;;;;;;4991249;28;20402;-76
2023/06/27 11:49:46;;;;;;;5.50;1.13;;;24.90;91.60;;;;;;4989324;28;20050;-78
2023/06/27 11:52:35;;;;;;;6.60;1.38;;;25.10;91.50;;;;;;4989795;28;20054;-76
2023/06/27 11:55:21;;;;;;;6.65;1.33;;;25.30;91.30;;;;;;4989548;28;20066;-77
2023/06/27 11:58:08;;;;;;;4.45;1.08;;;25.20;91.10;;;;;;4989938;28;20046;-74
2023/06/27 12:00:54;;;;;;;9.10;1.40;;;25.10;91.30;;;;;;4989725;28;20050;-74
2023/06/27 12:03:54;;;;;;;9.55;1.45;;;24.90;91.50;;;;;;4975826;28;20403;-77
2023/06/27 12:06:42;;;;;;;6.00;1.10;;;24.60;91.90;;;;;;4975596;28;20047;-77
2023/06/27 12:09:28;;;;;;;11.80;1.73;;;24.30;91.90;;;;;;4976830;28;20061;-75
2023/06/27 12:12:14;;;;;;;6.85;1.38;;;24.40;92.50;;;;;;4990926;28;20133;-75
2023/06/27 12:15:14;;;;;;;7.72;1.50;;;24.20;92.40;;;;;;4973454;28;20062;-78
2023/06/27 12:18:01;;;;;;;9.45;1.23;;;24.20;92.70;;;;;;4989438;28;20372;-75
2023/06/27 12:20:47;;;;;;;10.27;1.48;;;24.20;92.50;;;;;;4976080;28;20435;-78
2023/06/27 12:23:33;;;;;;;7.88;1.67;;;24.10;92.50;;;;;;4975499;28;20054;-76
2023/06/27 12:26:20;;;;;;;8.95;1.42;;;24.20;92.60;;;;;;4988573;28;20066;-74
2023/06/27 12:29:07;;;;;;;6.32;1.10;;;24.30;92.10;;;;;;4990146;28;20054;-76
2023/06/27 12:31:53;;;;;;;8.38;1.40;;;24.50;91.40;;;;;;4976147;28;20050;-75
2023/06/27 12:34:40;;;;;;;7.68;1.38;;;24.40;91.00;;;;;;4976297;28;20812;-78
2023/06/27 12:37:27;;;;;;;10.82;1.65;;;24.30;91.40;;;;;;4992017;28;20082;-76
2023/06/27 12:40:15;;;;;;;5.45;1.27;;;24.30;91.30;;;;;;4992400;28;20055;-77
2023/06/27 12:43:03;;;;;;;8.50;1.35;;;24.30;91.20;;;;;;4975312;28;20108;-79
2023/06/27 12:46:02;;;;;;;9.98;1.58;;;24.30;91.00;;;;;;4990750;28;20061;-79
2023/06/27 12:48:51;;;;;;;9.55;1.70;;;24.30;91.90;;;;;;4993564;28;20058;-75
2023/06/27 12:51:37;;;;;;;7.70;1.23;;;24.30;91.70;;;;;;4992257;28;20058;-77
2023/06/27 12:54:23;;;;;;;9.40;1.58;;;24.10;91.70;;;;;;4992511;28;20061;-77
2023/06/27 12:57:09;;;;;;;6.25;1.55;;;24.30;91.70;;;;;;4991965;28;20046;-78
2023/06/27 12:59:55;;;;;;;6.38;1.38;;;24.70;91.80;;;;;;4992065;28;20169;-77
2023/06/27 13:02:41;;;;;;;7.47;1.30;;;25.30;91.40;;;;;;4974502;28;20081;-76
2023/06/27 13:05:27;;;;;;;8.75;1.92;;;25.10;90.60;;;;;;4991870;28;20050;-77
2023/06/27 13:08:16;;;;;;;8.68;1.35;;;25.30;90.70;;;;;;4992278;28;20529;-75
2023/06/27 13:11:02;;;;;;;6.07;1.30;;;25.30;90.70;;;;;;4992321;28;20053;-77
2023/06/27 13:13:48;;;;;;;7.45;1.50;;;26.10;90.20;;;;;;4993606;28;20145;-78
2023/06/27 13:16:35;;;;;;;10.35;2.20;;;26.40;88.60;;;;;;4991499;28;20050;-76
2023/06/27 13:19:21;;;;;;;8.10;2.28;;;26.60;87.60;;;;;;4975617;28;20046;-77
2023/06/27 13:22:07;;;;;;;5.97;1.40;;;26.70;86.60;;;;;;4991842;28;20086;-76
2023/06/27 13:24:55;;;;;;;5.75;1.40;;;27.00;86.40;;;;;;4991328;28;20506;-76
2023/06/27 13:27:41;;;;;;;5.55;1.45;;;27.00;85.90;;;;;;4991437;28;20054;-80
2023/06/27 13:30:28;;;;;;;9.18;1.38;;;27.30;85.10;;;;;;4992482;28;20139;-77
2023/06/27 13:33:14;;;;;;;5.72;1.10;;;27.40;84.50;;;;;;4975010;28;20065;-78
2023/06/27 13:36:00;;;;;;;6.38;0.93;;;27.20;84.00;;;;;;4992111;28;20093;-77
2023/06/27 13:38:46;;;;;;;4.82;1.23;;;27.20;83.60;;;;;;4991109;28;20050;-78
2023/06/27 13:41:32;;;;;;;6.25;1.17;;;27.10;83.50;;;;;;4991612;28;20058;-77
2023/06/27 13:44:18;;;;;;;8.25;1.30;;;27.50;83.90;;;;;;4991334;28;20050;-77
2023/06/27 13:47:05;;;;;;;8.25;1.30;;;27.10;82.30;;;;;;4974808;28;20047;-78
2023/06/27 13:49:51;;;;;;;4.72;1.10;;;26.80;83.90;;;;;;4991425;28;20050;-78
2023/06/27 13:52:37;;;;;;;5.18;1.17;;;26.60;83.40;;;;;;4975022;28;20050;-79
2023/06/27 13:55:24;;;;;;;4.40;0.93;;;26.80;83.80;;;;;;4990801;28;20112;-75
2023/06/27 13:58:10;;;;;;;6.05;1.58;;;26.60;83.50;;;;;;4992979;28;20051;-76
2023/06/27 14:00:59;;;;;;;11.15;1.42;;;26.90;83.60;;;;;;4990789;28;20054;-77
2023/06/27 14:03:45;;;;;;;5.53;1.08;;;26.90;83.60;;;;;;4990537;28;20061;-75
2023/06/27 14:06:31;;;;;;;6.95;1.45;;;26.90;84.20;;;;;;4990993;28;20053;-77
2023/06/27 14:09:19;;;;;;;4.35;0.90;;;26.90;83.00;;;;;;4989433;28;20586;-76
2023/06/27 14:12:05;;;;;;;7.95;1.58;;;26.60;82.50;;;;;;4991053;28;20061;-75
2023/06/27 14:14:51;;;;;;;8.20;1.48;;;26.30;83.20;;;;;;4990973;28;20406;-75
2023/06/27 14:17:37;;;;;;;11.93;3.25;;;26.30;83.30;;;;;;4977522;28;20462;-76
2023/06/27 14:20:23;;;;;;;9.65;1.30;;;26.10;83.90;;;;;;4990368;28;20093;-75
2023/06/27 14:23:10;;;;;;;5.20;0.90;;;26.10;84.50;;;;;;4990583;28;20050;-76
2023/06/27 14:25:56;;;;;;;6.63;1.33;;;26.30;84.40;;;;;;4973208;28;20054;-75
2023/06/27 14:28:42;;;;;;;5.40;1.45;;;26.20;83.80;;;;;;4989934;28;20061;-77